YEG weather

Edmonton International Airport
Edmonton, Alberta, Canada

Public forecast

Using degrees Celsius for public forecast. Weather courtesy of forecast.io.

Current aviation weather report (METAR) for Edmonton International Airport

Retrieved 2019/10/20 01:00 UTC (47 minutes ago):

CYEG 200100Z 34008KT 20SM FEW076 SCT150 SCT250 03/M06 A2958 RMK AC1AC4CI1 AC TR CI TR SLP050

Aviation forecast (TAF) for Edmonton International Airport

Retrieved 2019-10-20 03:42 UTC (0 seconds ago):

TAF TAF CYEG 200238Z 2003/2024 30008KT P6SM SCT070 BKN120 BKN240 FM200500 29007KT P6SM SCT040 BKN070 BKN100 FM200800 27006KT P6SM BKN040 BKN070 TEMPO 2008/2015 BKN020 BKN040 FM201500 26006KT P6SM SCT040 RMK NXT FCST BY 200600Z